createdAt,value
2022-10-13T00:02:02.368Z,10.80
2022-10-13T00:04:31.159Z,10.80
2022-10-13T00:07:05.479Z,10.90
2022-10-13T00:09:36.170Z,10.90
2022-10-13T00:12:06.920Z,10.90
2022-10-13T00:14:35.534Z,10.90
2022-10-13T00:17:06.159Z,10.80
2022-10-13T00:19:35.988Z,10.90
2022-10-13T00:22:05.125Z,10.60
2022-10-13T00:24:33.621Z,10.80
2022-10-13T00:27:08.192Z,10.90
2022-10-13T00:29:39.698Z,10.80
2022-10-13T00:32:12.574Z,10.80
2022-10-13T00:34:40.879Z,10.70
2022-10-13T00:39:39.473Z,10.80
2022-10-13T00:42:13.764Z,10.80
2022-10-13T00:45:07.934Z,10.70
2022-10-13T00:47:43.204Z,10.70
2022-10-13T00:50:19.584Z,10.70
2022-10-13T00:52:52.450Z,10.60
2022-10-13T00:55:24.909Z,10.60
2022-10-13T00:57:56.355Z,10.50
2022-10-13T01:00:25.966Z,10.50
2022-10-13T01:02:57.950Z,10.40
2022-10-13T01:05:27.349Z,10.40
2022-10-13T01:07:56.920Z,10.40
2022-10-13T01:10:40.335Z,11.50
2022-10-13T01:13:21.031Z,10.30
2022-10-13T01:15:58.334Z,10.20
2022-10-13T01:18:36.747Z,10.20
2022-10-13T01:21:17.543Z,10.10
2022-10-13T01:24:21.345Z,10.10
2022-10-13T01:27:36.704Z,10.00
2022-10-13T01:30:16.225Z,9.90
2022-10-13T01:33:18.258Z,9.80
2022-10-13T01:36:15.444Z,9.80
2022-10-13T01:38:55.098Z,9.70
2022-10-13T01:41:29.514Z,9.70
2022-10-13T01:44:12.857Z,9.70
2022-10-13T01:46:45.399Z,9.70
2022-10-13T01:49:20.639Z,9.40
2022-10-13T01:51:51.440Z,9.60
2022-10-13T01:56:59.033Z,9.80
2022-10-13T01:59:30.985Z,9.80
2022-10-13T02:02:13.409Z,10.00
2022-10-13T02:04:56.456Z,9.90
2022-10-13T02:07:31.056Z,9.90
2022-10-13T02:10:09.957Z,10.30
2022-10-13T02:12:46.665Z,10.00
2022-10-13T02:15:19.508Z,9.90
2022-10-13T02:17:53.122Z,9.90
2022-10-13T02:20:23.628Z,9.70
2022-10-13T02:22:57.369Z,9.90
2022-10-13T02:25:27.466Z,9.70
2022-10-13T02:27:56.707Z,9.90
2022-10-13T02:30:27.131Z,9.90
2022-10-13T02:33:06.998Z,9.90
2022-10-13T02:38:06.351Z,9.90
2022-10-13T02:40:34.741Z,10.00
2022-10-13T02:43:03.340Z,10.00
2022-10-13T02:45:32.549Z,10.00
2022-10-13T02:48:02.672Z,10.00
2022-10-13T02:50:32.254Z,10.00
2022-10-13T02:53:03.346Z,10.00
2022-10-13T02:55:34.515Z,10.10
2022-10-13T02:58:03.022Z,9.80
2022-10-13T03:00:32.143Z,11.00
2022-10-13T03:03:04.967Z,10.10
2022-10-13T03:08:02.235Z,10.10
2022-10-13T03:10:34.958Z,9.90
2022-10-13T03:13:04.966Z,10.20
2022-10-13T03:15:39.010Z,10.30
2022-10-13T03:18:09.458Z,10.50
2022-10-13T03:23:13.008Z,10.50
2022-10-13T03:25:42.609Z,10.40
2022-10-13T03:28:10.842Z,10.70
2022-10-13T03:30:52.752Z,10.40
2022-10-13T03:33:22.948Z,10.40
2022-10-13T03:35:52.227Z,9.80
2022-10-13T03:38:25.263Z,11.40
2022-10-13T03:41:08.677Z,10.30
2022-10-13T03:43:37.063Z,10.20
2022-10-13T03:46:13.548Z,10.10
2022-10-13T03:48:47.627Z,10.10
2022-10-13T03:51:24.669Z,10.30
2022-10-13T03:53:56.629Z,10.20
2022-10-13T03:56:29.957Z,10.00
2022-10-13T03:59:05.281Z,9.90
2022-10-13T04:01:38.072Z,9.60
2022-10-13T04:04:09.402Z,9.90
2022-10-13T04:06:38.572Z,9.90
2022-10-13T04:09:09.934Z,9.80
2022-10-13T04:11:39.110Z,9.80
2022-10-13T04:14:08.596Z,9.50
2022-10-13T04:16:39.845Z,9.80
2022-10-13T04:19:19.340Z,9.80
2022-10-13T04:21:49.121Z,10.70
2022-10-13T04:24:19.959Z,9.80
2022-10-13T04:26:48.600Z,10.20
2022-10-13T04:29:28.464Z,10.00
2022-10-13T04:31:57.638Z,10.00
2022-10-13T04:34:28.109Z,10.00
2022-10-13T04:37:01.549Z,10.00
2022-10-13T04:39:30.502Z,10.00
2022-10-13T04:44:33.043Z,10.10
2022-10-13T04:47:03.290Z,10.60
2022-10-13T04:49:36.257Z,10.30
2022-10-13T04:52:04.423Z,10.00
2022-10-13T04:54:33.200Z,10.20
2022-10-13T04:57:04.472Z,10.20
2022-10-13T04:59:49.174Z,10.20
2022-10-13T05:02:21.478Z,9.90
2022-10-13T05:05:00.227Z,10.30
2022-10-13T05:10:06.181Z,10.30
2022-10-13T05:12:50.101Z,10.40
2022-10-13T05:15:29.323Z,10.10
2022-10-13T05:18:05.334Z,10.20
2022-10-13T05:20:42.265Z,10.00
2022-10-13T05:23:31.923Z,10.10
2022-10-13T05:26:18.200Z,10.10
2022-10-13T05:28:52.689Z,10.10
2022-10-13T05:31:27.585Z,10.00
2022-10-13T05:36:37.452Z,10.20
2022-10-13T05:39:32.898Z,10.30
2022-10-13T05:42:10.913Z,10.30
2022-10-13T05:44:41.818Z,10.30
2022-10-13T05:47:27.630Z,10.40
2022-10-13T05:52:39.463Z,10.30
2022-10-13T05:55:22.856Z,10.50
2022-10-13T05:57:54.130Z,10.50
2022-10-13T06:03:00.196Z,11.50
2022-10-13T06:10:48.603Z,10.40
2022-10-13T06:18:19.978Z,10.60
2022-10-13T06:20:50.458Z,10.70
2022-10-13T06:23:24.735Z,10.70
2022-10-13T06:25:55.589Z,10.70
2022-10-13T06:28:30.169Z,10.70
2022-10-13T06:30:59.619Z,10.70
2022-10-13T06:33:28.317Z,10.50
2022-10-13T06:35:56.881Z,10.60
2022-10-13T06:38:26.943Z,10.90
2022-10-13T06:41:06.292Z,10.80
2022-10-13T06:43:40.321Z,10.90
2022-10-13T06:46:11.702Z,10.70
2022-10-13T06:48:55.266Z,10.80
2022-10-13T06:51:47.067Z,11.00
2022-10-13T07:04:45.789Z,10.90
2022-10-13T07:20:28.011Z,11.40
2022-10-13T07:26:10.167Z,11.70
2022-10-13T07:28:48.057Z,11.50
2022-10-13T07:31:39.672Z,11.70
2022-10-13T08:00:57.193Z,12.70
2022-10-13T08:11:47.658Z,13.60
2022-10-13T08:17:14.590Z,12.80
2022-10-13T08:27:50.217Z,12.80
2022-10-13T08:30:28.229Z,12.80
2022-10-13T08:44:04.101Z,14.30
2022-10-13T08:46:35.655Z,12.80
2022-10-13T08:49:05.306Z,12.80
2022-10-13T08:51:36.496Z,12.70
2022-10-13T08:54:09.552Z,12.70
2022-10-13T08:56:41.189Z,12.60
2022-10-13T08:59:24.786Z,12.80
2022-10-13T09:02:00.167Z,12.70
2022-10-13T09:04:41.388Z,13.10
2022-10-13T09:07:24.135Z,12.80
2022-10-13T09:09:54.240Z,11.20
2022-10-13T09:12:37.801Z,12.80
2022-10-13T09:15:24.783Z,13.00
2022-10-13T09:18:14.105Z,13.00
2022-10-13T09:20:45.375Z,13.10
2022-10-13T09:23:31.935Z,13.10
2022-10-13T09:26:31.943Z,13.10
2022-10-13T09:29:23.640Z,13.10
2022-10-13T09:32:25.983Z,13.60
2022-10-13T09:35:16.477Z,13.30
2022-10-13T09:43:54.704Z,13.00
2022-10-13T09:46:36.826Z,13.50
2022-10-13T09:49:23.387Z,13.20
2022-10-13T09:54:39.650Z,13.40
2022-10-13T09:57:54.532Z,12.10
2022-10-13T10:00:46.400Z,13.30
2022-10-13T10:03:33.739Z,13.30
2022-10-13T10:06:17.158Z,13.50
2022-10-13T10:09:03.060Z,13.50
2022-10-13T10:11:50.241Z,13.70
2022-10-13T10:14:29.295Z,13.70
2022-10-13T10:17:13.875Z,13.80
2022-10-13T10:19:58.000Z,13.40
2022-10-13T10:22:45.213Z,14.00
2022-10-13T10:25:30.607Z,14.10
2022-10-13T10:28:24.291Z,14.30
2022-10-13T10:31:07.357Z,14.60
2022-10-13T10:33:52.678Z,14.80
2022-10-13T10:36:31.617Z,14.70
2022-10-13T10:39:09.912Z,14.80
2022-10-13T10:41:51.007Z,14.80
2022-10-13T10:44:23.824Z,14.50
2022-10-13T10:46:55.500Z,14.50
2022-10-13T10:49:32.754Z,14.40
2022-10-13T10:52:04.833Z,14.50
2022-10-13T10:54:49.140Z,14.60
2022-10-13T10:57:25.080Z,15.30
2022-10-13T11:00:05.176Z,14.60
2022-10-13T11:02:48.536Z,14.90
2022-10-13T11:05:17.720Z,14.90
2022-10-13T11:08:05.001Z,15.00
2022-10-13T11:10:36.726Z,15.20
2022-10-13T11:13:19.178Z,15.10
2022-10-13T11:18:59.701Z,16.00
2022-10-13T11:24:31.836Z,15.80
2022-10-13T11:27:35.807Z,16.20
2022-10-13T11:30:05.724Z,16.60
2022-10-13T11:32:58.592Z,16.70
2022-10-13T11:35:31.818Z,16.40
2022-10-13T11:38:49.285Z,16.40
2022-10-13T11:41:34.010Z,16.40
2022-10-13T11:44:30.347Z,16.40
2022-10-13T11:47:16.204Z,16.30
2022-10-13T11:50:09.784Z,16.50
2022-10-13T11:52:54.966Z,16.80
2022-10-13T11:55:36.442Z,16.80
2022-10-13T11:58:16.082Z,16.90
2022-10-13T12:01:04.461Z,17.00
2022-10-13T12:03:36.594Z,16.70
2022-10-13T12:06:08.267Z,17.10
2022-10-13T12:08:40.973Z,17.00
2022-10-13T12:11:24.323Z,16.60
2022-10-13T12:13:54.494Z,16.30
2022-10-13T12:16:24.969Z,16.80
2022-10-13T12:21:25.101Z,17.20
2022-10-13T12:24:09.165Z,17.10
2022-10-13T12:29:44.502Z,16.40
2022-10-13T12:32:38.958Z,16.50
2022-10-13T12:35:38.660Z,16.60
2022-10-13T12:38:45.628Z,16.70
2022-10-13T12:41:38.043Z,16.70
2022-10-13T12:44:32.393Z,16.70
2022-10-13T12:52:42.904Z,17.20
2022-10-13T12:55:37.261Z,17.20
2022-10-13T13:01:30.266Z,17.40
2022-10-13T13:04:14.436Z,17.40
2022-10-13T13:06:58.683Z,17.30
2022-10-13T13:09:34.808Z,17.30
2022-10-13T13:12:33.489Z,17.30
2022-10-13T13:15:47.225Z,17.50
2022-10-13T13:18:55.374Z,17.50
2022-10-13T13:24:39.806Z,17.40
2022-10-13T13:27:30.110Z,17.30
2022-10-13T13:30:18.784Z,17.30
2022-10-13T13:37:53.153Z,17.10
2022-10-13T13:40:38.808Z,17.30
2022-10-13T13:43:17.925Z,17.10
2022-10-13T13:48:36.335Z,17.50
2022-10-13T13:51:25.974Z,17.50
2022-10-13T14:04:43.125Z,18.40
2022-10-13T14:08:06.842Z,18.40
2022-10-13T14:20:19.991Z,17.80
2022-10-13T14:22:54.142Z,17.60
2022-10-13T14:25:24.522Z,17.60
2022-10-13T14:28:07.838Z,17.40
2022-10-13T14:30:43.808Z,17.10
2022-10-13T14:33:19.604Z,17.00
2022-10-13T14:36:04.469Z,17.80
2022-10-13T14:38:37.422Z,17.30
2022-10-13T14:41:13.373Z,17.20
2022-10-13T14:43:51.249Z,17.30
2022-10-13T14:46:23.029Z,17.30
2022-10-13T14:48:55.410Z,16.60
2022-10-13T14:51:25.683Z,16.80
2022-10-13T14:54:18.243Z,17.10
2022-10-13T14:56:53.179Z,16.90
2022-10-13T14:59:21.725Z,16.20
2022-10-13T15:02:02.848Z,16.60
2022-10-13T15:04:37.095Z,16.70
2022-10-13T15:07:12.634Z,16.70
2022-10-13T15:10:06.123Z,16.70
2022-10-13T15:12:35.863Z,16.70
2022-10-13T15:15:07.085Z,16.70
2022-10-13T15:17:37.005Z,16.60
2022-10-13T15:20:10.904Z,16.60
2022-10-13T15:25:12.658Z,16.50
2022-10-13T15:27:42.286Z,16.50
2022-10-13T15:30:11.522Z,16.30
2022-10-13T15:32:46.255Z,16.50
2022-10-13T15:35:18.095Z,16.10
2022-10-13T15:37:47.699Z,16.30
2022-10-13T15:40:17.830Z,16.30
2022-10-13T15:42:46.390Z,15.80
2022-10-13T15:45:17.054Z,16.20
2022-10-13T15:47:48.199Z,16.20
2022-10-13T15:50:29.408Z,16.10
2022-10-13T15:55:35.273Z,16.10
2022-10-13T15:58:06.246Z,15.80
2022-10-13T16:00:38.262Z,16.00
2022-10-13T16:03:07.426Z,16.20
2022-10-13T16:05:35.754Z,15.90
2022-10-13T16:08:13.919Z,15.90
2022-10-13T16:10:50.420Z,15.80
2022-10-13T16:13:24.951Z,15.80
2022-10-13T16:16:05.174Z,15.70
2022-10-13T16:18:38.376Z,15.30
2022-10-13T16:21:18.216Z,15.70
2022-10-13T16:23:53.858Z,15.30
2022-10-13T16:27:02.530Z,15.60
2022-10-13T16:29:38.820Z,15.60
2022-10-13T16:32:14.433Z,15.60
2022-10-13T16:34:46.454Z,15.50
2022-10-13T16:37:23.803Z,15.50
2022-10-13T16:39:52.532Z,15.40
2022-10-13T16:42:28.889Z,15.40
2022-10-13T16:45:23.930Z,15.40
2022-10-13T16:48:04.367Z,15.10
2022-10-13T16:50:40.092Z,15.30
2022-10-13T16:53:11.561Z,15.20
2022-10-13T16:55:42.267Z,15.50
2022-10-13T16:58:21.829Z,15.30
2022-10-13T17:01:13.011Z,15.40
2022-10-13T17:03:45.539Z,15.10
2022-10-13T17:06:16.437Z,15.00
2022-10-13T17:08:47.683Z,15.20
2022-10-13T17:11:19.806Z,15.20
2022-10-13T17:14:23.680Z,15.00
2022-10-13T17:16:57.806Z,15.10
2022-10-13T17:29:34.280Z,15.10
2022-10-13T17:32:04.824Z,14.90
2022-10-13T17:34:37.110Z,15.00
2022-10-13T17:37:15.840Z,14.90
2022-10-13T17:39:53.425Z,14.90
2022-10-13T17:45:06.078Z,14.80
2022-10-13T17:47:40.002Z,14.80
2022-10-13T17:50:14.764Z,14.60
2022-10-13T17:57:56.739Z,14.70
2022-10-13T18:00:43.782Z,14.50
2022-10-13T18:03:27.919Z,15.10
2022-10-13T18:06:01.996Z,15.30
2022-10-13T18:11:14.281Z,14.70
2022-10-13T18:13:57.761Z,14.70
2022-10-13T18:19:05.273Z,14.70
2022-10-13T18:21:43.841Z,14.60
2022-10-13T18:31:57.815Z,14.80
2022-10-13T18:34:29.516Z,14.50
2022-10-13T18:37:06.323Z,14.50
2022-10-13T18:40:14.114Z,15.00
2022-10-13T18:42:56.067Z,14.50
2022-10-13T18:45:27.826Z,14.50
2022-10-13T18:48:02.017Z,13.50
2022-10-13T18:50:35.303Z,14.40
2022-10-13T18:55:35.764Z,14.40
2022-10-13T18:58:14.898Z,14.40
2022-10-13T19:03:16.272Z,14.40
2022-10-13T19:05:50.630Z,14.30
2022-10-13T19:08:35.059Z,14.60
2022-10-13T19:11:13.735Z,14.40
2022-10-13T19:13:43.273Z,14.30
2022-10-13T19:16:20.987Z,14.30
2022-10-13T19:18:55.930Z,14.40
2022-10-13T19:21:28.542Z,14.30
2022-10-13T19:24:00.636Z,14.50
2022-10-13T19:26:38.689Z,14.60
2022-10-13T19:29:26.452Z,14.40
2022-10-13T19:40:24.701Z,14.30
2022-10-13T19:45:59.657Z,14.30
2022-10-13T19:48:39.496Z,14.30
2022-10-13T19:51:12.624Z,14.30
2022-10-13T19:53:47.415Z,14.10
2022-10-13T19:56:28.553Z,14.20
2022-10-13T19:59:07.534Z,14.20
2022-10-13T20:09:21.516Z,14.30
2022-10-13T20:11:55.598Z,14.30
2022-10-13T20:17:10.078Z,14.30
2022-10-13T20:19:41.510Z,13.90
2022-10-13T20:22:16.898Z,16.00
2022-10-13T20:24:48.105Z,14.20
2022-10-13T20:27:16.728Z,13.80
2022-10-13T20:30:05.030Z,14.20
2022-10-13T20:32:33.560Z,14.20
2022-10-13T20:35:06.408Z,14.20
2022-10-13T20:37:42.856Z,14.20
2022-10-13T20:40:14.122Z,14.20
2022-10-13T20:45:28.684Z,14.20
2022-10-13T20:47:57.272Z,14.10
2022-10-13T20:50:31.833Z,14.20
2022-10-13T20:53:08.448Z,14.20
2022-10-13T20:55:48.824Z,14.10
2022-10-13T20:58:21.918Z,14.10
2022-10-13T21:00:53.720Z,14.10
2022-10-13T21:05:53.952Z,14.00
2022-10-13T21:08:25.749Z,14.60
2022-10-13T21:10:59.658Z,14.10
2022-10-13T21:13:30.219Z,14.00
2022-10-13T21:18:30.843Z,14.00
2022-10-13T21:21:06.189Z,14.00
2022-10-13T21:23:44.821Z,14.30
2022-10-13T21:26:21.401Z,14.00
2022-10-13T21:28:54.999Z,16.80
2022-10-13T21:31:25.723Z,13.90
2022-10-13T21:36:31.011Z,14.00
2022-10-13T21:39:01.955Z,14.00
2022-10-13T21:41:32.336Z,14.00
2022-10-13T21:44:01.173Z,14.00
2022-10-13T21:46:34.046Z,14.00
2022-10-13T21:49:11.107Z,13.90
2022-10-13T21:51:57.398Z,14.00
2022-10-13T21:57:02.821Z,14.00
2022-10-13T21:59:38.923Z,14.10
2022-10-13T22:02:13.761Z,13.90
2022-10-13T22:04:53.762Z,14.00
2022-10-13T22:12:41.016Z,13.70
2022-10-13T22:15:20.867Z,13.90
2022-10-13T22:18:04.306Z,13.90
2022-10-13T22:20:50.585Z,13.90
2022-10-13T22:25:54.894Z,13.90
2022-10-13T22:28:30.321Z,13.60
2022-10-13T22:31:06.950Z,13.90
2022-10-13T22:33:42.681Z,13.90
2022-10-13T22:36:41.008Z,14.90
2022-10-13T22:41:51.698Z,13.90
2022-10-13T22:44:37.224Z,15.00
2022-10-13T22:47:23.170Z,13.80
2022-10-13T22:52:27.686Z,13.80
2022-10-13T23:00:05.986Z,13.30
2022-10-13T23:02:45.600Z,13.80
2022-10-13T23:05:25.248Z,13.80
2022-10-13T23:10:34.025Z,14.70
2022-10-13T23:15:46.556Z,13.90
2022-10-13T23:18:21.049Z,13.90
2022-10-13T23:23:34.927Z,14.00
2022-10-13T23:26:06.619Z,13.80
2022-10-13T23:31:16.249Z,13.50
2022-10-13T23:36:20.969Z,13.90
2022-10-13T23:38:55.517Z,13.80
2022-10-13T23:41:24.741Z,13.90
2022-10-13T23:43:58.070Z,13.80
2022-10-13T23:46:29.011Z,13.80
2022-10-13T23:48:58.042Z,13.80
2022-10-13T23:51:30.418Z,13.80
2022-10-13T23:54:10.321Z,13.40
2022-10-13T23:56:41.164Z,13.70
2022-10-13T23:59:12.398Z,13.70
